createdAt,value
2022-09-02T12:35:52.967Z,22.50
2022-09-02T12:39:58.607Z,22.70
2022-09-02T12:44:19.658Z,22.00
2022-09-02T12:48:59.447Z,21.80
2022-09-02T12:53:07.493Z,21.60
2022-09-02T12:57:10.497Z,21.50
2022-09-02T13:01:15.379Z,21.60
2022-09-02T13:05:38.721Z,21.60
2022-09-02T13:10:18.249Z,21.70
2022-09-02T13:14:23.241Z,21.70
2022-09-02T13:18:53.031Z,21.70
2022-09-02T13:24:41.149Z,21.70
2022-09-02T13:28:12.485Z,21.70
2022-09-02T13:32:23.277Z,21.70
2022-09-02T13:36:37.298Z,21.60
2022-09-02T13:40:40.494Z,21.50
2022-09-02T13:44:42.476Z,21.30
2022-09-02T13:48:44.739Z,21.30
2022-09-02T13:57:22.221Z,21.30
2022-09-02T14:01:33.090Z,21.20
2022-09-02T14:05:37.791Z,21.10
2022-09-02T14:09:42.054Z,21.20
2022-09-02T14:13:48.708Z,21.10
2022-09-02T14:18:09.335Z,21.00
2022-09-02T14:22:43.784Z,20.90
2022-09-02T14:26:52.135Z,20.80
2022-09-02T14:30:59.916Z,20.70
2022-09-02T14:35:28.098Z,20.60
2022-09-02T14:39:30.096Z,20.70
2022-09-02T14:43:50.144Z,20.80
2022-09-02T14:47:52.467Z,20.70
2022-09-02T14:51:57.121Z,20.70
2022-09-02T14:55:59.574Z,20.60
2022-09-02T15:00:11.129Z,20.50
2022-09-02T15:04:14.816Z,20.40
2022-09-02T15:08:17.065Z,20.30
2022-09-02T15:12:26.144Z,20.30
2022-09-02T15:16:29.522Z,20.30
2022-09-02T15:20:32.584Z,20.20
2022-09-02T15:24:34.726Z,20.20
2022-09-02T15:28:38.529Z,20.10
2022-09-02T15:32:41.008Z,20.00
2022-09-02T15:36:42.963Z,20.10
2022-09-02T15:40:45.451Z,20.00
2022-09-02T15:44:47.932Z,20.00
2022-09-02T15:48:56.734Z,20.00
2022-09-02T15:53:01.017Z,20.00
2022-09-02T15:57:03.366Z,20.00
2022-09-02T16:01:05.530Z,20.00
2022-09-02T16:05:08.287Z,19.90
2022-09-02T16:09:12.950Z,19.90
2022-09-02T16:13:14.886Z,19.90
2022-09-02T16:17:16.887Z,19.90
2022-09-02T16:21:20.507Z,19.80
2022-09-02T16:25:23.341Z,19.70
2022-09-02T16:29:28.203Z,19.70
2022-09-02T16:33:30.483Z,19.60
2022-09-02T16:37:32.402Z,19.60
2022-09-02T16:41:38.548Z,19.60
2022-09-02T16:45:40.537Z,19.60
2022-09-02T16:49:42.654Z,19.60
2022-09-02T16:53:44.880Z,19.50
2022-09-02T16:57:46.863Z,19.50
2022-09-02T17:01:48.834Z,19.40
2022-09-02T17:05:50.924Z,19.40
2022-09-02T17:09:52.791Z,19.30
2022-09-02T17:14:00.558Z,19.30
2022-09-02T17:18:02.473Z,19.20
2022-09-02T17:22:04.382Z,19.10
2022-09-02T17:26:06.393Z,19.10
2022-09-02T17:30:10.963Z,19.10
2022-09-02T17:34:14.700Z,19.10
2022-09-02T17:38:16.643Z,19.10
2022-09-02T17:42:18.628Z,19.00
2022-09-02T17:46:21.094Z,19.00
2022-09-02T17:50:23.143Z,18.90
2022-09-02T17:54:25.944Z,19.00
2022-09-02T17:58:39.198Z,18.90
2022-09-02T18:03:02.669Z,18.80
2022-09-02T18:07:46.462Z,18.70
2022-09-02T18:11:51.793Z,18.70
2022-09-02T18:16:23.358Z,18.60
2022-09-02T18:20:36.139Z,18.60
2022-09-02T18:24:53.266Z,18.50
2022-09-02T18:29:42.771Z,18.40
2022-09-02T18:33:45.172Z,18.30
2022-09-02T18:38:07.266Z,18.30
2022-09-02T18:42:46.916Z,18.30
2022-09-02T18:46:52.751Z,18.20
2022-09-02T18:51:00.319Z,18.10
2022-09-02T18:55:13.997Z,18.10
2022-09-02T18:59:25.999Z,18.10
2022-09-02T19:03:34.875Z,18.00
2022-09-02T19:07:55.415Z,18.00
2022-09-02T19:11:57.382Z,18.00
2022-09-02T19:16:04.329Z,17.90
2022-09-02T19:20:08.200Z,17.90
2022-09-02T19:24:24.737Z,17.80
2022-09-02T19:28:27.732Z,17.80
2022-09-02T19:32:33.350Z,17.70
2022-09-02T19:36:39.241Z,17.70
2022-09-02T19:40:41.186Z,17.70
2022-09-02T19:44:43.042Z,17.70
2022-09-02T19:48:44.927Z,17.60
2022-09-02T19:52:49.387Z,17.60
2022-09-02T19:56:51.756Z,17.50
2022-09-02T20:00:54.257Z,17.50
2022-09-02T20:04:56.307Z,17.50
2022-09-02T20:08:58.357Z,17.50
2022-09-02T20:13:00.332Z,17.40
2022-09-02T20:17:03.324Z,17.40
2022-09-02T20:21:06.473Z,17.30
2022-09-02T20:25:09.614Z,17.30
2022-09-02T20:29:30.153Z,17.30
2022-09-02T20:33:44.029Z,17.30
2022-09-02T20:38:03.259Z,17.30
2022-09-02T20:42:23.025Z,17.30
2022-09-02T20:46:31.064Z,17.30
2022-09-02T20:50:54.873Z,17.20
2022-09-02T20:55:19.837Z,17.20
2022-09-02T20:59:55.082Z,17.20
2022-09-02T21:04:24.641Z,17.20
2022-09-02T21:08:38.530Z,17.10
2022-09-02T21:12:43.334Z,17.10
2022-09-02T21:16:57.139Z,17.10
2022-09-02T21:21:10.322Z,17.10
2022-09-02T21:25:16.537Z,17.00
2022-09-02T21:29:38.382Z,17.00
2022-09-02T21:33:43.844Z,17.00
2022-09-02T21:37:46.113Z,16.90
2022-09-02T21:42:32.693Z,17.00
2022-09-02T21:47:01.555Z,17.00
2022-09-02T21:51:19.429Z,17.00
2022-09-02T21:55:50.226Z,16.90
2022-09-02T22:00:03.693Z,16.90
2022-09-02T22:04:18.411Z,16.80
2022-09-02T22:08:32.230Z,16.80
2022-09-02T22:12:39.905Z,16.80
2022-09-02T22:17:08.216Z,16.80
2022-09-02T22:21:29.057Z,16.80
2022-09-02T22:25:33.830Z,16.80
2022-09-02T22:30:13.621Z,16.80
2022-09-02T22:34:18.656Z,16.70
2022-09-02T22:38:27.789Z,16.70
2022-09-02T22:42:40.846Z,16.70
2022-09-02T22:47:08.361Z,16.70
2022-09-02T22:51:35.653Z,16.70
2022-09-02T22:55:48.600Z,16.60
2022-09-02T23:00:01.856Z,16.60
2022-09-02T23:04:16.161Z,16.60
2022-09-02T23:08:22.926Z,16.50
2022-09-02T23:12:30.083Z,16.60
2022-09-02T23:16:53.356Z,16.50
2022-09-02T23:21:16.976Z,16.50
2022-09-02T23:25:37.763Z,16.40
2022-09-02T23:29:43.105Z,16.50
2022-09-02T23:34:07.107Z,16.40
2022-09-02T23:38:38.561Z,16.40
2022-09-02T23:42:40.709Z,16.30
2022-09-02T23:46:48.447Z,16.30
2022-09-02T23:51:15.096Z,16.30
2022-09-02T23:55:23.267Z,16.20
2022-09-02T23:59:54.010Z,16.20
